• Join FlightAware (Why Join?)
  • Login
  • US Flag 
12:50AM EDT


 

Airport Tracker/Info


-or-


 

Live Flight TrackerFlight Track Log ✈ C-FRMV ✈ 20-Jun-2013 ✈ CYSK - CYWG

Flight Track Log - Related Links

Times and Time Zones

All times are in EDT time to prevent confusion due to time zone crossing. See the C-FRMV flight status page for this flight to view local times or setup timezone preferences in your user account.

Time Position Orientation Groundspeed Altitude Reporting Facility
EDT Latitude Longitude Course Direction KTS MPH feet Rate Location/Type
12:00AM 56.3762 -79.9236 257° West  Level FlightAware Approximate
12:01AM 56.3585 -80.0369 248° West  Level FlightAware Approximate
12:02AM 56.3341 -80.1464 248° West  Level FlightAware Approximate
12:03AM 56.3095 -80.2556 248° West  Level FlightAware Approximate
12:04AM 56.2847 -80.3647 248° West  Level FlightAware Approximate
12:05AM 56.2598 -80.4736 248° West  Level FlightAware Approximate
12:06AM 56.2349 -80.5824 248° West  Level FlightAware Approximate
12:07AM 56.2098 -80.6910 247° West  Level FlightAware Approximate
12:07AM 56.2667 -80.2667 247° West 260 299 18,000  Level Winnipeg Center
12:08AM 56.1846 -80.7995 247° West  Level FlightAware Approximate
12:08AM 56.2333 -80.4167 248° West 250 288 18,000  Level Winnipeg Center
12:09AM 56.1592 -80.9078 247° West  Level FlightAware Approximate
12:10AM 56.1339 -81.0160 247° West  Level FlightAware Approximate
12:10AM 56.2301 -80.6029 248° West  Level FlightAware Approximate
12:11AM 56.1084 -81.1240 247° West  Level FlightAware Approximate
12:12AM 56.0828 -81.2319 247° West  Level FlightAware Approximate
12:12AM 56.1500 -80.8500 247° West 190 219 18,000  Level Winnipeg Center
12:14AM 56.1167 -81.1500 259° West 250 288 18,000  Level Montreal Center
12:15AM 56.0833 -81.2667 243° Southwest 230 265 18,000  Level Montreal Center
12:16AM 56.0500 -81.3667 239° Southwest 230 265 18,000  Level Montreal Center
12:17AM 56.0523 -81.3599 247° West  Level FlightAware Approximate
12:18AM 56.0031 -81.5620 247° West  Level FlightAware Approximate
12:25AM 55.8195 -82.3102 247° West  Level FlightAware Approximate
12:25AM 55.7833 -82.3667 246° West 310 357 18,000  Level Winnipeg Center
12:26AM 55.7929 -82.4165 246° West  Level FlightAware Approximate
12:27AM 55.7662 -82.5226 246° West  Level FlightAware Approximate
12:27AM 55.7515 -82.4770 243° Southwest  Level Estimated
12:28AM 55.7395 -82.6286 246° West  Level FlightAware Approximate
12:29AM 55.7126 -82.7345 246° West  Level FlightAware Approximate
12:30AM 55.6856 -82.8402 246° West  Level FlightAware Approximate
12:31AM 55.6586 -82.9458 246° West  Level FlightAware Approximate
12:34AM 55.5404 -83.1967 243° Southwest  Level Estimated
12:35AM 55.5098 -83.2989 242° Southwest  Level Estimated
12:36AM 55.4792 -83.4009 242° Southwest  Level Estimated
12:37AM 55.4486 -83.5028 242° Southwest  Level Estimated
12:38AM 55.4178 -83.6045 242° Southwest  Level Estimated
12:39AM 55.3870 -83.7060 242° Southwest  Level Estimated
12:40AM 55.3560 -83.8074 242° Southwest  Level Estimated
12:41AM 55.3250 -83.9087 242° Southwest  Level Estimated
12:42AM 55.2939 -84.0097 242° Southwest  Level Estimated
12:43AM 55.2627 -84.1106 242° Southwest  Level Estimated
12:44AM 55.2314 -84.2114 241° Southwest  Level Estimated
12:45AM 55.2001 -84.3120 241° Southwest  Level Estimated
12:46AM 55.1687 -84.4124 241° Southwest  Level Estimated
12:47AM 55.1372 -84.5127 241° Southwest  Level Estimated
12:48AM 55.1056 -84.6128 241° Southwest  Level Estimated
12:49AM 55.0739 -84.7128 241° Southwest  Level Estimated
12:50AM 55.0421 -84.8126 241° Southwest  Level Estimated
12:51AM 55.0103 -84.9122 241° Southwest  Level Estimated
12:52AM 54.9784 -85.0117 241° Southwest  Level Estimated
12:53AM 54.9464 -85.1111 241° Southwest  Level Estimated
12:54AM 54.9143 -85.2102 241° Southwest  Level Estimated
12:55AM 54.8821 -85.3092 241° Southwest  Level Estimated
12:56AM 54.8499 -85.4081 240° Southwest  Level Estimated
12:56AM 54.9000 -85.6667 240° Southwest 280 322 18,000  Level Winnipeg Center
12:57AM 54.8175 -85.5068 240° Southwest  Level Estimated
12:57AM 54.9000 -85.7833 270° West 250 288 18,000  Level Winnipeg Center
12:58AM 54.7851 -85.6053 240° Southwest  Level Estimated
12:58AM 54.8500 -85.8833 229° Southwest 240 276 18,000  Level Winnipeg Center
12:59AM 54.7526 -85.7037 240° Southwest  Level Estimated
12:59AM 54.8500 -86.0000 270° West 240 276 18,000  Level Winnipeg Center
01:00AM 54.7201 -85.8019 240° Southwest  Level Estimated
01:00AM 54.8000 -86.1000 229° Southwest 240 276 18,000  Level Winnipeg Center
01:01AM 54.6874 -85.9000 240° Southwest  Level Estimated
01:01AM 54.7833 -86.2167 256° West 240 276 18,000  Level Winnipeg Center
01:02AM 54.7500 -86.3167 240° Southwest 240 276 18,000  Level Winnipeg Center
01:03AM 54.7333 -86.4167 254° West 240 276 18,000  Level Winnipeg Center
01:04AM 54.6833 -86.5333 233° Southwest 240 276 18,000  Level Winnipeg Center
01:05AM 54.6667 -86.6333 254° West 240 276 18,000  Level Winnipeg Center
01:06AM 54.6333 -86.7500 244° Southwest 240 276 18,000  Level Winnipeg Center
01:07AM 54.6167 -86.8500 254° West 240 276 18,000  Level Winnipeg Center
01:08AM 54.5833 -86.9667 244° Southwest 240 276 18,000  Level Winnipeg Center
01:09AM 54.5667 -87.0667 254° West 240 276 18,000  Level Winnipeg Center
01:10AM 54.5333 -87.1833 244° Southwest 250 288 18,000  Level Winnipeg Center
01:11AM 54.5167 -87.2833 254° West 250 288 18,000  Level Winnipeg Center
01:12AM 54.4833 -87.4000 244° Southwest 250 288 18,000  Level Winnipeg Center
01:13AM 54.4500 -87.5000 240° Southwest 250 288 18,000  Level Winnipeg Center
01:14AM 54.4167 -87.6167 244° Southwest 240 276 18,000  Level Winnipeg Center
01:15AM 54.4000 -87.7167 254° West 250 288 18,000  Level Winnipeg Center
01:16AM 54.3667 -87.8333 244° Southwest 250 288 18,000  Level Winnipeg Center
01:17AM 54.3500 -87.9333 254° West 250 288 18,000  Level Winnipeg Center
01:18AM 54.3167 -88.0500 244° Southwest 250 288 18,000  Level Winnipeg Center
01:19AM 54.3000 -88.1333 251° West 250 288 18,000  Level Winnipeg Center
01:20AM 54.2500 -88.2667 237° Southwest 250 288 18,000  Level Winnipeg Center
01:21AM 54.2333 -88.3500 251° West 250 288 18,000  Level Winnipeg Center
01:22AM 54.2000 -88.4833 247° West 250 288 18,000  Level Winnipeg Center
01:23AM 54.1667 -88.5667 236° Southwest 250 288 18,000  Level Winnipeg Center
01:24AM 54.1333 -88.7000 247° West 250 288 18,000  Level Winnipeg Center
01:25AM 54.1000 -88.7833 236° Southwest 250 288 18,000  Level Winnipeg Center
01:26AM 54.0833 -88.9000 256° West 250 288 18,000 180 Level Winnipeg Center
01:27AM 54.0500 -89.0000 240° Southwest 240 276 18,400 360 Climbing Winnipeg Center
01:28AM 54.0167 -89.0833 236° Southwest 240 276 18,800 480 Climbing Winnipeg Center
01:29AM 54.0000 -89.2000 256° West 230 265 19,400 540 Climbing Winnipeg Center
01:30AM 53.9667 -89.3000 240° Southwest 230 265 19,900 300 Climbing Winnipeg Center
01:31AM 53.9333 -89.3833 236° Southwest 230 265 20,000  Climbing Winnipeg Center
01:32AM 53.9167 -89.5000 256° West 240 276 20,000  Level Winnipeg Center
01:33AM 53.8667 -89.6000 230° Southwest 250 288 20,000  Level Winnipeg Center
01:34AM 53.8500 -89.7167 256° West 250 288 20,000  Level Winnipeg Center
01:35AM 53.8167 -89.8167 241° Southwest 250 288 20,000  Level Winnipeg Center
01:37AM 53.7333 -89.9667 227° Southwest 260 299 20,000  Level Winnipeg Center
01:38AM 53.7000 -90.0500 236° Southwest 270 311 20,000  Level Winnipeg Center
01:39AM 53.6333 -90.1167 211° Southwest 260 299 20,000  Level Winnipeg Center
01:40AM 53.5833 -90.2167 230° Southwest 260 299 20,000  Level Winnipeg Center
01:41AM 53.5167 -90.2833 211° Southwest 260 299 20,000  Level Winnipeg Center
01:42AM 53.4667 -90.3833 230° Southwest 260 299 20,000  Level Winnipeg Center
01:43AM 53.4167 -90.4333 211° Southwest 260 299 20,000  Level Winnipeg Center
01:44AM 53.3500 -90.5333 222° Southwest 260 299 20,000  Level Winnipeg Center
01:45AM 53.3000 -90.6333 230° Southwest 260 299 20,000  Level Winnipeg Center
01:46AM 53.2500 -90.6833 211° Southwest 260 299 20,000  Level Winnipeg Center
01:47AM 53.2000 -90.7833 230° Southwest 260 299 20,000  Level Winnipeg Center
01:48AM 53.1333 -90.8667 217° Southwest 260 299 20,000  Level Winnipeg Center
01:49AM 53.0833 -90.9333 219° Southwest 260 299 20,000  Level Winnipeg Center
01:50AM 53.0333 -91.0333 230° Southwest 260 299 20,000  Level Winnipeg Center
01:51AM 52.9833 -91.1000 219° Southwest 260 299 20,000  Level Winnipeg Center
01:52AM 52.9167 -91.1833 217° Southwest 260 299 20,000  Level Winnipeg Center
01:53AM 52.8667 -91.2667 225° Southwest 260 299 20,000  Level Winnipeg Center
01:54AM 52.8000 -91.3333 211° Southwest 260 299 20,000  Level Winnipeg Center
01:55AM 52.7667 -91.4333 241° Southwest 260 299 20,000  Level Winnipeg Center
01:56AM 52.7333 -91.5167 237° Southwest 250 288 20,000  Level Winnipeg Center
01:57AM 52.6833 -91.6333 235° Southwest 250 288 20,000  Level Winnipeg Center
01:58AM 52.6333 -91.7167 225° Southwest 250 288 20,000  Level Winnipeg Center
01:59AM 52.6167 -91.8000 252° West 250 288 20,000  Level Winnipeg Center
02:00AM 52.5667 -91.9000 231° Southwest 250 288 20,000  Level Winnipeg Center
02:01AM 52.5333 -91.9833 237° Southwest 250 288 20,000  Level Winnipeg Center
02:02AM 52.4833 -92.1000 235° Southwest 250 288 20,000  Level Winnipeg Center
02:03AM 52.4500 -92.1833 237° Southwest 250 288 20,000  Level Winnipeg Center
02:04AM 52.4000 -92.2667 225° Southwest 250 288 20,000  Level Winnipeg Center
02:05AM 52.3667 -92.3500 237° Southwest 250 288 20,000  Level Winnipeg Center
02:06AM 52.3167 -92.4500 231° Southwest 250 288 20,000  Level Winnipeg Center
02:07AM 52.2667 -92.5500 231° Southwest 250 288 20,000  Level Winnipeg Center
02:08AM 52.2500 -92.6500 255° West 250 288 20,000  Level Winnipeg Center
02:09AM 52.2000 -92.7333 226° Southwest 250 288 20,000  Level Winnipeg Center
02:10AM 52.1500 -92.8167 226° Southwest 260 299 20,000  Level Winnipeg Center
02:11AM 52.1167 -92.9000 237° Southwest 240 276 20,000  Level Winnipeg Center
02:12AM 52.0667 -92.9833 226° Southwest 250 288 20,000  Level Winnipeg Center
02:13AM 52.0167 -93.0667 226° Southwest 250 288 20,000  Level Winnipeg Center
02:14AM 51.9833 -93.1833 245° Southwest 250 288 20,000  Level Winnipeg Center
02:15AM 51.9500 -93.2667 237° Southwest 250 288 20,000  Level Winnipeg Center
02:16AM 51.9000 -93.3500 226° Southwest 250 288 20,000  Level Winnipeg Center
02:17AM 51.8667 -93.4333 237° Southwest 250 288 20,000  Level Winnipeg Center
02:18AM 51.8167 -93.5167 226° Southwest 250 288 20,000  Level Winnipeg Center
02:19AM 51.7667 -93.6167 231° Southwest 250 288 20,000  Level Winnipeg Center
02:20AM 51.7333 -93.7000 237° Southwest 250 288 20,000  Level Winnipeg Center
02:21AM 51.7000 -93.8000 242° Southwest 250 288 20,000  Level Winnipeg Center
02:22AM 51.6500 -93.8833 226° Southwest 250 288 20,000  Level Winnipeg Center
02:23AM 51.6167 -93.9667 237° Southwest 250 288 20,000  Level Winnipeg Center
02:24AM 51.5667 -94.0500 226° Southwest 250 288 20,000  Level Winnipeg Center
02:25AM 51.5167 -94.1333 226° Southwest 250 288 20,000  Level Winnipeg Center
02:26AM 51.4833 -94.2500 245° Southwest 240 276 20,000  Level Winnipeg Center
02:27AM 51.4333 -94.3333 226° Southwest 250 288 20,000  Level Winnipeg Center
02:28AM 51.3833 -94.4167 226° Southwest 240 276 20,000  Level Winnipeg Center
02:29AM 51.3500 -94.5000 237° Southwest 240 276 20,000  Level Winnipeg Center
02:30AM 51.3167 -94.5833 237° Southwest 250 288 20,000  Level Winnipeg Center
02:31AM 51.2833 -94.6667 237° Southwest 240 276 20,000  Level Winnipeg Center
02:32AM 51.2333 -94.7667 231° Southwest 250 288 20,000  Level Winnipeg Center
02:33AM 51.1833 -94.8500 226° Southwest 250 288 20,000  Level Winnipeg Center
02:34AM 51.1333 -94.9333 226° Southwest 250 288 20,000  Level Winnipeg Center
02:35AM 51.1000 -95.0167 238° Southwest 250 288 20,000  Level Winnipeg Center
02:36AM 51.0500 -95.1000 226° Southwest 250 288 20,000  Level Winnipeg Center
02:37AM 51.0167 -95.1833 238° Southwest 250 288 20,000  Level Winnipeg Center
02:38AM 50.9667 -95.2667 226° Southwest 250 288 20,000  Level Winnipeg Center
02:39AM 50.9167 -95.3667 232° Southwest 250 288 20,000  Level Winnipeg Center
02:40AM 50.8833 -95.4500 238° Southwest 250 288 20,000  Level Winnipeg Center
02:41AM 50.8333 -95.5333 226° Southwest 250 288 20,000  Level Winnipeg Center
02:42AM 50.7833 -95.6167 227° Southwest 250 288 20,000 -240 Level Winnipeg Center
02:43AM 50.7500 -95.7000 238° Southwest 250 288 19,600 -780 Descending Winnipeg Center
02:44AM 50.7167 -95.7833 238° Southwest 250 288 18,500 -1,080 Descending Winnipeg Center
02:45AM 50.6667 -95.8833 232° Southwest 260 299 17,500 -1,020 Descending Winnipeg Center
02:46AM 50.6167 -95.9667 227° Southwest 260 299 16,500 -900 Descending Winnipeg Center
02:47AM 50.5833 -96.0500 238° Southwest 260 299 15,700 -900 Descending Winnipeg Center
02:48AM 50.5333 -96.1500 232° Southwest 260 299 14,800 -840 Descending Winnipeg Center
02:49AM 50.4833 -96.2333 227° Southwest 260 299 14,100 -840 Descending Winnipeg Center
02:50AM 50.4333 -96.3167 227° Southwest 250 288 13,200 -840 Descending Winnipeg Center
02:51AM 50.3833 -96.3833 220° Southwest 250 288 12,500 -720 Descending Winnipeg Center
02:52AM 50.3500 -96.4667 238° Southwest 250 288 11,800 -780 Descending Winnipeg Center
02:53AM 50.3000 -96.5667 232° Southwest 250 288 11,000 -900 Descending Winnipeg Center
02:54AM 50.2500 -96.6500 227° Southwest 260 299 10,100 -900 Descending Winnipeg Center
02:55AM 50.2000 -96.7333 227° Southwest 260 299 9,200 -1,140 Descending Winnipeg Center
02:56AM 50.1500 -96.8167 227° Southwest 260 299 7,900 -1,260 Descending Winnipeg Center
02:57AM 50.1167 -96.9167 243° Southwest 250 288 6,700 -1,380 Descending Winnipeg Center
02:58AM 50.0667 -97.0000 227° Southwest 240 276 5,200 -1,380 Descending Winnipeg Center
02:59AM 50.0333 -97.0667 232° Southwest 240 276 4,000 -1,020 Descending Winnipeg Center
03:00AM 50.0000 -97.1500 238° Southwest 230 265 3,200 -900 Descending Winnipeg Center
03:01AM 49.9667 -97.2333 238° Southwest 180 207 2,300 -1,080 Descending Winnipeg Center
03:02AM 49.9167 -97.2333 180° South 160 184 1,100 -780 Descending Winnipeg Center
03:03AM 49.8833 -97.2333 180° South 60 69 800 -300 Descending Winnipeg Center